You are not logged in, Click here to log in
ICAO: ZUCK Country: 中華人民共和國重庆市渝北区
Latitude: 29.7192 Longitude: 106.642
Total Arrivals: 15 Total Departures: 15
Latest Arrival: CZ3475 (ZHCC-ZUCK)CHU. CHUHAO Latest Departure: CZ6175 (ZUCK-ZPJH)CHU. CHUHAO
Scenery:
METAR : ZUCK 151600Z 27002MPS 240V320 9000 -RA FEW008 BKN018 OVC040 19/18 Q1017 NOSIG

重慶江北國際機場CKG